createdAt,value
2023-03-12T00:01:07.993Z,73.25
2023-03-12T00:03:34.334Z,74.17
2023-03-12T00:06:10.057Z,74.01
2023-03-12T00:08:36.992Z,74.97
2023-03-12T00:11:03.280Z,75.03
2023-03-12T00:13:29.557Z,75.48
2023-03-12T00:15:55.923Z,74.52
2023-03-12T00:18:22.230Z,75.11
2023-03-12T00:20:48.515Z,74.20
2023-03-12T00:23:14.819Z,74.46
2023-03-12T00:25:41.095Z,73.63
2023-03-12T00:28:07.453Z,74.34
2023-03-12T00:30:33.747Z,74.81
2023-03-12T00:33:00.032Z,74.97
2023-03-12T00:35:26.379Z,75.44
2023-03-12T00:37:52.756Z,74.59
2023-03-12T00:40:19.049Z,74.19
2023-03-12T00:42:45.336Z,74.97
2023-03-12T00:45:11.644Z,74.28
2023-03-12T00:47:37.921Z,74.96
2023-03-12T00:50:04.222Z,74.80
2023-03-12T00:52:30.527Z,74.05
2023-03-12T00:54:56.808Z,72.91
2023-03-12T00:57:23.172Z,73.66
2023-03-12T00:59:49.469Z,74.90
2023-03-12T01:02:15.743Z,75.33
2023-03-12T01:04:42.041Z,74.83
2023-03-12T01:07:08.387Z,75.08
2023-03-12T01:09:34.669Z,74.84
2023-03-12T01:12:00.981Z,75.78
2023-03-12T01:14:27.274Z,75.91
2023-03-12T01:16:53.628Z,76.05
2023-03-12T01:19:19.954Z,76.65
2023-03-12T01:21:46.261Z,76.16
2023-03-12T01:24:12.546Z,75.91
2023-03-12T01:26:38.834Z,77.40
2023-03-12T01:29:05.153Z,77.52
2023-03-12T01:31:31.458Z,77.16
2023-03-12T01:33:57.746Z,75.70
2023-03-12T01:36:24.124Z,75.68
2023-03-12T01:38:50.452Z,75.65
2023-03-12T01:41:16.737Z,76.09
2023-03-12T01:43:43.210Z,76.39
2023-03-12T01:46:09.594Z,76.91
2023-03-12T01:48:35.886Z,77.20
2023-03-12T01:51:02.183Z,77.39
2023-03-12T01:53:28.474Z,77.02
2023-03-12T01:55:54.758Z,76.67
2023-03-12T01:58:21.060Z,77.17
2023-03-12T02:00:47.381Z,77.08
2023-03-12T02:03:13.717Z,76.42
2023-03-12T02:05:40.039Z,77.12
2023-03-12T02:08:06.322Z,77.74
2023-03-12T02:10:32.594Z,77.16
2023-03-12T02:12:58.918Z,79.24
2023-03-12T02:15:25.198Z,79.03
2023-03-12T02:17:51.493Z,79.01
2023-03-12T02:20:17.802Z,78.25
2023-03-12T02:22:44.084Z,78.40
2023-03-12T02:25:10.370Z,77.80
2023-03-12T02:27:36.679Z,79.41
2023-03-12T02:30:02.969Z,79.46
2023-03-12T02:32:29.288Z,79.54
2023-03-12T02:34:55.592Z,79.98
2023-03-12T02:37:21.859Z,79.67
2023-03-12T02:39:48.135Z,79.40
2023-03-12T02:42:14.432Z,79.29
2023-03-12T02:44:40.714Z,79.46
2023-03-12T02:47:07.007Z,79.64
2023-03-12T02:49:33.349Z,79.67
2023-03-12T02:51:59.638Z,79.26
2023-03-12T02:54:25.938Z,78.88
2023-03-12T02:56:52.276Z,79.82
2023-03-12T02:59:18.570Z,79.32
2023-03-12T03:01:44.948Z,79.90
2023-03-12T03:04:11.345Z,81.04
2023-03-12T03:06:37.663Z,81.01
2023-03-12T03:09:03.951Z,81.08
2023-03-12T03:11:30.258Z,82.35
2023-03-12T03:13:56.552Z,83.47
2023-03-12T03:16:22.854Z,82.77
2023-03-12T03:18:49.193Z,82.75
2023-03-12T03:21:15.472Z,82.24
2023-03-12T03:23:41.755Z,82.38
2023-03-12T03:26:08.062Z,82.24
2023-03-12T03:28:34.376Z,84.86
2023-03-12T03:31:00.788Z,83.58
2023-03-12T03:33:27.146Z,84.54
2023-03-12T03:35:53.498Z,83.71
2023-03-12T03:38:19.799Z,84.94
2023-03-12T03:40:46.099Z,84.76
2023-03-12T03:43:12.392Z,84.03
2023-03-12T03:45:38.664Z,83.38
2023-03-12T03:48:04.956Z,83.29
2023-03-12T03:50:31.269Z,83.69
2023-03-12T03:52:57.548Z,83.18
2023-03-12T03:55:23.854Z,83.37
2023-03-12T03:57:50.140Z,83.92
2023-03-12T04:00:16.424Z,83.25
2023-03-12T04:02:42.708Z,84.27
2023-03-12T04:05:09.007Z,85.95
2023-03-12T04:07:35.289Z,85.28
2023-03-12T04:10:01.595Z,85.94
2023-03-12T04:12:27.881Z,84.97
2023-03-12T04:14:54.166Z,84.59
2023-03-12T04:17:20.471Z,85.44
2023-03-12T04:19:46.762Z,85.85
2023-03-12T04:22:13.111Z,86.65
2023-03-12T04:24:39.454Z,86.30
2023-03-12T04:27:22.144Z,86.94
2023-03-12T04:29:55.949Z,86.30
2023-03-12T04:32:37.357Z,87.80
2023-03-12T04:35:03.663Z,88.88
2023-03-12T04:37:29.935Z,87.86
2023-03-12T04:39:56.220Z,86.93
2023-03-12T04:42:22.539Z,87.03
2023-03-12T04:44:48.825Z,87.30
2023-03-12T04:47:15.103Z,87.42
2023-03-12T04:49:41.392Z,88.69
2023-03-12T04:52:07.683Z,89.37
2023-03-12T04:54:33.963Z,88.64
2023-03-12T04:57:00.260Z,89.21
2023-03-12T04:59:26.525Z,89.25
2023-03-12T05:01:52.794Z,89.70
2023-03-12T05:04:19.084Z,89.19
2023-03-12T05:06:45.356Z,89.07
2023-03-12T05:09:11.639Z,88.13
2023-03-12T05:11:39.798Z,87.17
2023-03-12T05:14:06.275Z,87.48
2023-03-12T05:16:32.588Z,88.17
2023-03-12T05:18:58.904Z,87.88
2023-03-12T05:21:25.182Z,89.15
2023-03-12T05:23:51.465Z,88.88
2023-03-12T05:26:17.809Z,88.61
2023-03-12T05:28:44.105Z,88.72
2023-03-12T05:31:10.444Z,88.86
2023-03-12T05:33:36.795Z,88.01
2023-03-12T05:36:03.158Z,88.16
2023-03-12T05:38:29.568Z,88.41
2023-03-12T05:40:55.863Z,88.44
2023-03-12T05:43:22.148Z,87.58
2023-03-12T05:45:48.459Z,87.07
2023-03-12T05:48:14.772Z,86.92
2023-03-12T05:50:41.049Z,87.02
2023-03-12T05:53:07.343Z,87.86
2023-03-12T05:55:33.648Z,89.16
2023-03-12T05:57:59.942Z,89.25
2023-03-12T06:00:26.213Z,89.05
2023-03-12T06:02:52.508Z,89.75
2023-03-12T06:05:18.781Z,87.94
2023-03-12T06:07:45.064Z,86.61
2023-03-12T06:10:11.357Z,87.72
2023-03-12T06:12:37.636Z,88.61
2023-03-12T06:15:03.917Z,88.27
2023-03-12T06:17:30.219Z,87.43
2023-03-12T06:19:56.491Z,87.08
2023-03-12T06:22:22.770Z,87.14
2023-03-12T06:24:49.059Z,87.01
2023-03-12T06:27:15.340Z,87.67
2023-03-12T06:29:41.618Z,87.70
2023-03-12T06:32:07.954Z,85.96
2023-03-12T06:34:34.233Z,86.06
2023-03-12T06:37:00.529Z,86.94
2023-03-12T06:39:26.849Z,87.99
2023-03-12T06:41:53.121Z,88.49
2023-03-12T06:44:19.404Z,89.09
2023-03-12T06:46:45.818Z,89.03
2023-03-12T06:49:12.136Z,89.01
2023-03-12T06:51:38.444Z,88.44
2023-03-12T06:54:04.740Z,90.45
2023-03-12T06:56:31.035Z,91.36
2023-03-12T06:58:57.325Z,90.31
2023-03-12T07:01:23.636Z,90.43
2023-03-12T07:03:49.933Z,89.48
2023-03-12T07:06:16.210Z,90.63
2023-03-12T07:08:42.517Z,90.75
2023-03-12T07:11:08.798Z,90.34
2023-03-12T07:13:35.096Z,91.07
2023-03-12T07:16:01.410Z,91.26
2023-03-12T07:18:27.732Z,91.84
2023-03-12T07:20:54.029Z,92.21
2023-03-12T07:23:20.346Z,92.45
2023-03-12T07:25:46.628Z,91.75
2023-03-12T07:28:12.920Z,91.14
2023-03-12T07:30:39.219Z,90.85
2023-03-12T07:33:05.587Z,90.65
2023-03-12T07:35:32.029Z,91.59
2023-03-12T07:37:58.416Z,92.44
2023-03-12T07:40:24.736Z,92.16
2023-03-12T07:42:51.148Z,93.13
2023-03-12T07:45:17.483Z,94.34
2023-03-12T07:47:44.173Z,93.57
2023-03-12T07:50:11.015Z,93.69
2023-03-12T07:52:37.481Z,93.40
2023-03-12T07:55:03.813Z,93.51
2023-03-12T07:57:30.124Z,92.96
2023-03-12T07:59:56.489Z,91.64
2023-03-12T08:02:22.888Z,92.16
2023-03-12T08:04:49.368Z,92.39
2023-03-12T08:07:15.769Z,93.63
2023-03-12T08:09:42.086Z,92.88
2023-03-12T08:12:08.457Z,93.35
2023-03-12T08:14:34.867Z,92.91
2023-03-12T08:17:01.164Z,93.15
2023-03-12T08:19:27.429Z,93.01
2023-03-12T08:21:53.729Z,92.72
2023-03-12T08:24:20.018Z,92.56
2023-03-12T08:26:46.333Z,92.30
2023-03-12T08:29:12.631Z,92.41
2023-03-12T08:31:41.817Z,92.41
2023-03-12T08:34:11.640Z,92.34
2023-03-12T08:36:37.937Z,92.38
2023-03-12T08:39:04.237Z,92.68
2023-03-12T08:41:30.537Z,92.33
2023-03-12T08:43:56.874Z,92.75
2023-03-12T08:46:23.200Z,92.36
2023-03-12T08:48:49.481Z,92.18
2023-03-12T08:51:16.952Z,91.88
2023-03-12T08:53:43.303Z,92.51
2023-03-12T08:56:09.580Z,92.52
2023-03-12T08:58:35.878Z,92.29
2023-03-12T09:01:02.162Z,92.25
2023-03-12T09:03:28.541Z,92.04
2023-03-12T09:05:54.893Z,91.83
2023-03-12T09:08:21.175Z,91.51
2023-03-12T09:10:47.464Z,91.22
2023-03-12T09:13:13.763Z,91.41
2023-03-12T09:15:40.057Z,90.71
2023-03-12T09:18:06.344Z,91.20
2023-03-12T09:20:32.646Z,90.30
2023-03-12T09:22:58.929Z,90.71
2023-03-12T09:25:25.208Z,90.00
2023-03-12T09:27:51.506Z,90.75
2023-03-12T09:30:17.792Z,90.91
2023-03-12T09:32:44.100Z,90.49
2023-03-12T09:35:10.391Z,90.31
2023-03-12T09:43:13.800Z,89.45
2023-03-12T09:48:38.877Z,87.71
2023-03-12T09:51:28.417Z,88.66
2023-03-12T09:54:01.313Z,87.10
2023-03-12T09:56:27.668Z,87.10
2023-03-12T09:58:54.017Z,88.00
2023-03-12T10:01:29.579Z,87.02
2023-03-12T10:12:12.086Z,80.30
2023-03-12T10:17:29.457Z,78.13
2023-03-12T10:19:55.758Z,79.27
2023-03-12T10:22:22.032Z,80.76
2023-03-12T10:24:48.311Z,82.22
2023-03-12T10:27:14.617Z,80.07
2023-03-12T10:29:44.055Z,80.51
2023-03-12T10:32:10.868Z,79.57
2023-03-12T10:34:37.165Z,79.70
2023-03-12T10:37:03.438Z,79.58
2023-03-12T10:39:29.712Z,79.71
2023-03-12T10:41:56.004Z,80.62
2023-03-12T10:44:22.284Z,80.82
2023-03-12T10:46:48.571Z,80.42
2023-03-12T10:49:14.932Z,80.17
2023-03-12T10:51:41.205Z,79.34
2023-03-12T10:54:07.484Z,78.59
2023-03-12T10:56:33.776Z,77.97
2023-03-12T10:59:00.062Z,83.74
2023-03-12T11:01:26.413Z,76.43
2023-03-12T11:03:52.816Z,77.88
2023-03-12T11:06:19.146Z,77.81
2023-03-12T11:08:45.577Z,78.89
2023-03-12T11:11:11.878Z,77.04
2023-03-12T11:13:38.166Z,77.68
2023-03-12T11:16:04.480Z,77.93
2023-03-12T11:18:30.809Z,77.27
2023-03-12T11:20:57.090Z,78.47
2023-03-12T11:23:23.368Z,79.50
2023-03-12T11:25:49.667Z,78.63
2023-03-12T11:28:15.973Z,79.03
2023-03-12T11:30:42.267Z,78.61
2023-03-12T11:33:08.634Z,78.36
2023-03-12T11:35:35.006Z,77.58
2023-03-12T11:38:01.367Z,78.23
2023-03-12T11:40:27.661Z,76.92
2023-03-12T11:42:53.948Z,76.88
2023-03-12T11:45:20.228Z,76.43
2023-03-12T11:47:46.590Z,76.75
2023-03-12T11:50:12.910Z,74.69
2023-03-12T11:52:39.196Z,75.79
2023-03-12T11:55:05.531Z,77.08
2023-03-12T11:57:36.208Z,77.25
2023-03-12T12:00:02.505Z,77.18
2023-03-12T12:02:28.835Z,76.86
2023-03-12T12:04:55.125Z,75.18
2023-03-12T12:07:21.409Z,75.52
2023-03-12T12:09:47.696Z,74.67
2023-03-12T12:12:13.983Z,76.01
2023-03-12T12:14:40.283Z,75.20
2023-03-12T12:17:06.576Z,74.26
2023-03-12T12:19:32.868Z,72.37
2023-03-12T12:21:59.139Z,71.35
2023-03-12T12:24:25.646Z,72.20
2023-03-12T12:26:52.100Z,71.95
2023-03-12T12:29:18.371Z,73.23
2023-03-12T12:31:44.720Z,72.62
2023-03-12T12:34:11.016Z,73.12
2023-03-12T12:36:37.295Z,73.59
2023-03-12T12:39:03.584Z,74.55
2023-03-12T12:41:29.856Z,73.22
2023-03-12T12:43:56.122Z,71.61
2023-03-12T12:46:22.475Z,72.26
2023-03-12T12:48:48.788Z,70.66
2023-03-12T12:51:15.080Z,70.78
2023-03-12T12:53:41.367Z,69.91
2023-03-12T12:56:07.653Z,70.84
2023-03-12T12:58:34.000Z,70.26
2023-03-12T13:01:00.347Z,69.26
2023-03-12T13:03:26.655Z,68.74
2023-03-12T13:05:52.953Z,68.58
2023-03-12T13:08:19.331Z,69.17
2023-03-12T13:10:57.064Z,68.22
2023-03-12T13:13:29.015Z,68.40
2023-03-12T13:15:55.399Z,66.80
2023-03-12T13:18:22.437Z,67.57
2023-03-12T13:20:48.908Z,68.67
2023-03-12T13:23:15.217Z,67.96
2023-03-12T13:25:41.509Z,67.40
2023-03-12T13:28:08.865Z,67.01
2023-03-12T13:30:35.163Z,67.07
2023-03-12T13:33:02.374Z,66.35
2023-03-12T13:35:28.726Z,66.41
2023-03-12T13:37:55.010Z,64.86
2023-03-12T13:40:21.289Z,64.94
2023-03-12T13:42:47.587Z,65.56
2023-03-12T13:45:13.852Z,65.51
2023-03-12T13:47:40.115Z,65.60
2023-03-12T13:50:06.422Z,64.28
2023-03-12T13:52:32.713Z,65.63
2023-03-12T13:54:59.042Z,66.15
2023-03-12T13:57:25.399Z,64.33
2023-03-12T13:59:51.775Z,63.81
2023-03-12T14:02:18.054Z,64.05
2023-03-12T14:04:44.417Z,63.89
2023-03-12T14:07:10.738Z,64.77
2023-03-12T14:09:39.851Z,63.76
2023-03-12T14:12:06.608Z,63.71
2023-03-12T14:14:33.097Z,62.68
2023-03-12T14:16:59.381Z,63.09
2023-03-12T14:19:25.684Z,62.80
2023-03-12T14:21:51.973Z,63.79
2023-03-12T14:24:18.267Z,63.38
2023-03-12T14:26:44.593Z,63.62
2023-03-12T14:29:11.029Z,61.57
2023-03-12T14:31:37.375Z,62.37
2023-03-12T14:34:03.702Z,62.23
2023-03-12T14:36:30.084Z,61.73
2023-03-12T14:38:56.443Z,60.18
2023-03-12T14:41:22.743Z,61.73
2023-03-12T14:43:49.028Z,61.17
2023-03-12T14:46:15.337Z,59.95
2023-03-12T14:48:41.766Z,60.37
2023-03-12T14:51:08.122Z,61.01
2023-03-12T14:53:34.434Z,60.45
2023-03-12T14:56:00.730Z,59.84
2023-03-12T14:58:27.084Z,59.63
2023-03-12T15:00:53.373Z,59.97
2023-03-12T15:03:19.724Z,59.27
2023-03-12T15:05:46.029Z,58.40
2023-03-12T15:08:12.321Z,58.26
2023-03-12T15:10:38.692Z,59.13
2023-03-12T15:13:04.971Z,59.65
2023-03-12T15:15:31.247Z,59.59
2023-03-12T15:17:57.542Z,59.29
2023-03-12T15:20:23.814Z,59.13
2023-03-12T15:22:50.091Z,60.29
2023-03-12T15:25:16.401Z,59.73
2023-03-12T15:27:42.679Z,59.06
2023-03-12T15:30:08.964Z,60.17
2023-03-12T15:32:35.280Z,59.89
2023-03-12T15:35:01.667Z,60.53
2023-03-12T15:37:28.099Z,60.29
2023-03-12T15:39:54.520Z,60.00
2023-03-12T15:42:20.913Z,61.37
2023-03-12T15:44:47.235Z,59.43
2023-03-12T15:47:13.568Z,58.06
2023-03-12T15:49:39.859Z,58.97
2023-03-12T15:52:06.212Z,58.47
2023-03-12T15:54:32.550Z,57.42
2023-03-12T16:13:31.203Z,58.77
2023-03-12T16:15:57.493Z,58.87
2023-03-12T16:18:23.776Z,59.60
2023-03-12T16:20:50.077Z,59.14
2023-03-12T16:23:16.363Z,59.52
2023-03-12T16:25:42.641Z,59.62
2023-03-12T16:28:08.942Z,59.15
2023-03-12T16:30:35.224Z,59.73
2023-03-12T16:33:01.533Z,58.87
2023-03-12T16:35:27.895Z,59.63
2023-03-12T16:37:54.219Z,58.72
2023-03-12T16:40:32.459Z,58.76
2023-03-12T16:43:00.263Z,59.77
2023-03-12T16:45:26.580Z,60.07
2023-03-12T16:47:52.865Z,59.19
2023-03-12T16:50:19.161Z,59.70
2023-03-12T16:52:45.440Z,59.46
2023-03-12T16:55:12.217Z,59.40
2023-03-12T16:57:38.598Z,59.13
2023-03-12T17:00:04.889Z,59.07
2023-03-12T17:02:31.171Z,59.28
2023-03-12T17:04:57.704Z,59.87
2023-03-12T17:07:24.034Z,58.83
2023-03-12T17:09:50.318Z,58.74
2023-03-12T17:12:16.626Z,58.50
2023-03-12T17:14:42.913Z,59.32
2023-03-12T17:17:09.215Z,60.03
2023-03-12T17:19:35.564Z,59.35
2023-03-12T17:22:01.877Z,59.53
2023-03-12T17:24:28.194Z,59.52
2023-03-12T17:26:54.498Z,59.28
2023-03-12T17:29:20.793Z,58.79
2023-03-12T17:31:47.069Z,58.48
2023-03-12T17:34:13.369Z,58.24
2023-03-12T17:36:39.681Z,58.29
2023-03-12T17:39:05.991Z,57.02
2023-03-12T17:41:32.281Z,56.19
2023-03-12T17:43:58.600Z,57.69
2023-03-12T17:46:24.960Z,56.22
2023-03-12T17:48:51.391Z,56.73
2023-03-12T17:51:17.691Z,56.98
2023-03-12T17:53:43.977Z,56.25
2023-03-12T17:56:10.315Z,55.59
2023-03-12T17:58:36.585Z,55.93
2023-03-12T18:01:02.892Z,56.19
2023-03-12T18:03:29.261Z,55.66
2023-03-12T18:05:55.603Z,55.40
2023-03-12T18:19:24.014Z,54.00
2023-03-12T18:27:26.735Z,54.34
2023-03-12T18:30:10.447Z,53.61
2023-03-12T18:32:58.920Z,54.59
2023-03-12T18:35:25.252Z,54.38
2023-03-12T18:37:51.554Z,54.37
2023-03-12T18:40:17.846Z,55.03
2023-03-12T18:42:44.143Z,55.22
2023-03-12T18:45:10.432Z,54.71
2023-03-12T18:47:36.941Z,58.43
2023-03-12T18:50:03.347Z,57.11
2023-03-12T18:52:29.699Z,61.41
2023-03-12T18:54:55.977Z,60.07
2023-03-12T18:57:22.423Z,59.08
2023-03-12T18:59:48.729Z,59.82
2023-03-12T19:02:15.065Z,59.71
2023-03-12T19:04:41.368Z,59.72
2023-03-12T19:07:07.652Z,61.58
2023-03-12T19:09:33.952Z,61.82
2023-03-12T19:12:00.250Z,60.03
2023-03-12T19:14:26.532Z,59.24
2023-03-12T19:16:52.821Z,60.03
2023-03-12T19:19:19.118Z,61.02
2023-03-12T19:21:45.393Z,61.89
2023-03-12T19:24:11.685Z,64.99
2023-03-12T19:26:38.048Z,64.85
2023-03-12T19:29:04.344Z,65.39
2023-03-12T19:31:30.682Z,67.01
2023-03-12T19:33:57.004Z,67.47
2023-03-12T19:36:23.283Z,68.02
2023-03-12T19:38:49.563Z,67.83
2023-03-12T19:41:15.857Z,67.96
2023-03-12T19:43:42.129Z,66.53
2023-03-12T19:46:08.479Z,67.48
2023-03-12T19:48:34.811Z,66.43
2023-03-12T19:51:01.085Z,64.21
2023-03-12T19:53:27.360Z,62.59
2023-03-12T19:55:53.655Z,61.29
2023-03-12T19:58:19.929Z,60.91
2023-03-12T20:00:46.201Z,60.14
2023-03-12T20:03:12.535Z,59.32
2023-03-12T20:05:38.843Z,59.07
2023-03-12T20:08:05.129Z,59.27
2023-03-12T20:10:31.427Z,58.07
2023-03-12T20:12:57.697Z,58.08
2023-03-12T20:15:23.979Z,58.91
2023-03-12T20:17:50.293Z,59.44
2023-03-12T20:20:16.578Z,60.73
2023-03-12T20:22:42.883Z,62.60
2023-03-12T20:25:09.181Z,62.15
2023-03-12T20:27:35.466Z,60.44
2023-03-12T20:30:01.762Z,61.86
2023-03-12T20:32:28.103Z,62.54
2023-03-12T20:34:54.410Z,62.89
2023-03-12T20:37:20.681Z,62.94
2023-03-12T20:39:46.987Z,60.92
2023-03-12T20:42:13.255Z,59.27
2023-03-12T20:44:39.542Z,60.59
2023-03-12T20:47:05.856Z,62.11
2023-03-12T20:49:32.149Z,61.05
2023-03-12T20:51:58.428Z,62.76
2023-03-12T20:54:24.736Z,62.32
2023-03-12T20:56:51.009Z,62.61
2023-03-12T20:59:17.300Z,63.20
2023-03-12T21:01:43.655Z,63.58
2023-03-12T21:04:09.955Z,63.78
2023-03-12T21:06:36.233Z,64.76
2023-03-12T21:09:02.530Z,63.74
2023-03-12T21:11:28.811Z,63.02
2023-03-12T21:13:55.089Z,61.87
2023-03-12T21:16:21.428Z,62.04
2023-03-12T21:18:47.731Z,61.54
2023-03-12T21:21:14.204Z,60.73
2023-03-12T21:23:40.569Z,61.18
2023-03-12T21:26:09.201Z,61.00
2023-03-12T21:28:36.005Z,60.46
2023-03-12T21:31:02.345Z,60.38
2023-03-12T21:33:28.664Z,61.68
2023-03-12T21:35:54.975Z,61.55
2023-03-12T21:38:21.322Z,61.92
2023-03-12T21:40:47.596Z,61.97
2023-03-12T21:43:13.869Z,61.91
2023-03-12T21:45:40.173Z,62.21
2023-03-12T21:48:06.464Z,62.22
2023-03-12T21:50:32.744Z,62.47
2023-03-12T21:52:59.054Z,62.38
2023-03-12T21:55:25.336Z,61.53
2023-03-12T21:57:51.614Z,61.65
2023-03-12T22:00:17.922Z,61.48
2023-03-12T22:02:44.205Z,61.36
2023-03-12T22:05:10.481Z,60.83
2023-03-12T22:07:36.790Z,60.35
2023-03-12T22:10:03.084Z,60.32
2023-03-12T22:12:29.362Z,60.76
2023-03-12T22:14:55.665Z,60.73
2023-03-12T22:17:21.955Z,60.64
2023-03-12T22:19:48.237Z,60.60
2023-03-12T22:22:14.540Z,60.67
2023-03-12T22:24:40.816Z,60.92
2023-03-12T22:27:07.089Z,60.90
2023-03-12T22:29:33.397Z,61.18
2023-03-12T22:31:59.677Z,61.23
2023-03-12T22:34:25.969Z,61.18
2023-03-12T22:36:52.277Z,62.20
2023-03-12T22:39:18.587Z,62.56
2023-03-12T22:41:44.877Z,62.53
2023-03-12T22:44:11.208Z,62.61
2023-03-12T22:46:37.518Z,62.25
2023-03-12T22:49:03.855Z,62.75
2023-03-12T22:51:30.162Z,62.31
2023-03-12T22:53:56.453Z,62.22
2023-03-12T22:56:22.736Z,62.42
2023-03-12T22:58:49.031Z,63.45
2023-03-12T23:01:15.307Z,62.90
2023-03-12T23:03:41.590Z,62.61
2023-03-12T23:06:07.898Z,62.13
2023-03-12T23:08:34.259Z,62.45
2023-03-12T23:11:00.540Z,62.45
2023-03-12T23:13:26.846Z,62.66
2023-03-12T23:15:53.153Z,63.18
2023-03-12T23:18:19.474Z,63.18
2023-03-12T23:20:46.050Z,63.11
2023-03-12T23:23:12.334Z,62.98
2023-03-12T23:25:38.618Z,62.91
2023-03-12T23:28:04.929Z,62.73
2023-03-12T23:30:31.207Z,61.90
2023-03-12T23:32:57.552Z,62.12
2023-03-12T23:35:24.047Z,61.99
2023-03-12T23:37:50.412Z,62.28
2023-03-12T23:40:16.697Z,62.05
2023-03-12T23:42:43.019Z,62.93
2023-03-12T23:45:09.307Z,62.40
2023-03-12T23:47:35.590Z,62.57
2023-03-12T23:50:01.927Z,63.58
2023-03-12T23:52:28.211Z,63.28
2023-03-12T23:54:54.488Z,63.69
2023-03-12T23:57:20.785Z,63.68
2023-03-12T23:59:47.065Z,64.04
